CheckWX is a tool to help pilots better visualize weather data.  It is not intended as a substitute for an official pre-flight weather briefing.

15:42:28 UTC

KHHF METAR
Hemphill County Airport
Canadian, Texas, USA
Current

27 mins ago

KHHF 291515Z AUTO 10003KT 10SM CLR 24/15 A3026 RMK AO2 T02400146
Observed
May-29 @ 15:15 UTC
Wind
  • 100° at 3 KTS
Visibility
Flight Rules
VFR
Cloud Levels
  • Clear skies
Temperature
24°C / 75°F
Dewpoint
15°C / 59°F
Humidity
57%
Altimeter
30.26" Hg
Pressure
1024.72 hPa
Previous

47 mins ago

KHHF 291455Z AUTO 00000KT 10SM CLR 23/15 A3027 RMK AO2 T02260146
Observed
May-29 @ 14:55 UTC
Visibility
Flight Rules
VFR
Cloud Levels
  • Clear skies
Temperature
23°C / 73°F
Dewpoint
15°C / 59°F
Humidity
61%
Altimeter
30.27" Hg
Pressure
1025.02 hPa
Previous

1 hour ago

KHHF 291435Z AUTO 00000KT 10SM CLR 22/14 A3027 RMK AO2 T02170139
Observed
May-29 @ 14:35 UTC
Visibility
Flight Rules
VFR
Cloud Levels
  • Clear skies
Temperature
22°C / 72°F
Dewpoint
14°C / 57°F
Humidity
61%
Altimeter
30.27" Hg
Pressure
1025.02 hPa